Kezdőlap
METAR-TAF:

METAR-TAF

Repülőterek :

Moline, Illinois, Amerikai Egyesült Államok

földrajzi szélesség: 41-27-05N, földrajzi hosszúság: 090-30-53W, magasság: 179 m

Jelenlegi meteorológiai megfigyelések

A jelentés 38 perccel ezelõtt készült, 15:52 UTC
Szélcsend
Hőmérséklet 27°C
Páratartalom 58%
Légköri nyomás 1021 hPa
Látótávolság: 16.1 km
Derült ég

METAR: KMLI 291552Z 00000KT 10SM CLR 27/18 A3016 RMK AO2 SLP207 T02670183

Idő: 11:30 (16:30 UTC)

Előrejelzés

A jelentés 5 órával és 10 perccel ezelõtt készült, 11:20 UTC
Az előrejelzés 29-én 12 óra UTC és 30-én 12 óra UTC között érvényes
Dél-délnyugati szél 6 kt
Látótávolság: 10 km
Szórványos felhőzet 12000 lábon
29-én 1900 órától UTC szerint
Délnyugati szél 7 kt
Látótávolság: 10 km
Kevés felhő 7000 lábon

TAF: KMLI 291120Z 2912/3012 21006KT P6SM SCT120 FM291900 22007KT P6SM FEW070

Meteorológiai megfigyelések és előrejelzések több, mint 4000 repülőtéren (METAR és TAF jelentéseket).

A térképen piros és sárga pontok jelzik az elérhető meteorológiai állomásokat.

Mozgassa az egeret a pont fölött, hogy megjelenjen az állomás neve.

Azután kattintson az időjárási megfigyelések és előrejelzések megtekintéséhez.

A térkép megváltoztatása: kattintson a fekete keresztel jelölt zöld gombra ráközelítéshez, a vonallal jelölt zöld gombra távolításhoz, vagy a zöld nyilakra a szomszédos térképek eléréséhez.


METAR-TAF: